Date,TemperatureHighF,TemperatureAvgF,TemperatureLowF,DewpointHighF,DewpointAvgF,DewpointLowF,HumidityHigh,HumidityAvg,HumidityLow,PressureMaxIn,PressureMinIn,WindSpeedMaxMPH,WindSpeedAvgMPH,GustSpeedMaxMPH,PrecipitationSumIn
2013-7-1,73.0,71.0,70.1,70.3,69.6,69.2,97,95,91,30.04,30.00,0,0,0,0.09
2013-7-2,70.1,61.2,57.0,69.2,60.0,55.9,98,96,92,30.18,30.02,4,1,12,0.43
2013-7-3,83.8,69.0,59.6,74.8,65.5,58.7,99,90,71,30.15,30.02,6,1,12,0.01
2013-7-4,89.9,77.1,67.3,74.5,70.2,66.7,99,81,53,30.11,29.98,6,1,14,0.00
2013-7-5,91.0,78.7,66.8,76.5,69.6,65.1,98,76,49,30.06,29.93,8,1,17,0.00
2013-7-6,88.2,77.5,66.1,71.6,67.6,59.2,97,74,50,29.97,29.88,5,1,16,0.00
2013-7-7,85.3,73.1,61.6,75.4,65.6,60.1,96,79,55,29.93,29.84,4,0,9,0.00
2013-7-8,73.2,69.0,66.9,70.7,67.4,65.7,97,95,91,30.01,29.86,6,3,6,0.26
2013-7-9,72.3,69.0,66.2,67.7,66.4,64.6,98,91,84,30.06,30.01,7,1,7,0.18
2013-7-10,66.4,65.4,63.5,65.5,64.4,62.9,99,97,93,30.03,29.72,6,1,11,0.63
2013-7-11,66.0,65.8,65.6,65.7,65.5,65.3,99,99,99,29.72,29.69,0,0,0,0.00
2013-7-12,81.6,64.6,57.9,61.9,60.5,55.7,96,89,47,30.17,29.95,9,2,9,0.00
2013-7-13,81.1,69.8,56.5,67.1,61.1,55.2,98,77,45,30.26,30.17,4,1,13,0.00
2013-7-14,87.6,74.5,60.7,75.1,67.1,59.8,98,80,53,30.23,30.12,5,0,11,0.00
2013-7-15,92.7,77.7,62.9,72.6,66.7,62.0,98,73,40,30.14,30.01,4,1,13,0.00
2013-7-16,91.2,78.0,65.6,76.0,68.5,64.3,96,75,44,30.10,30.05,3,0,13,0.00
2013-7-17,91.2,77.2,63.7,73.1,68.0,62.5,97,76,50,30.11,29.88,7,2,21,0.17
2013-7-18,85.3,75.8,67.4,73.4,69.6,66.2,98,82,55,29.95,29.87,11,2,19,0.07
2013-7-19,91.6,79.7,69.8,75.4,71.4,65.5,98,78,51,29.90,29.56,11,3,25,0.09
2013-7-20,86.7,76.0,66.8,70.1,66.9,55.8,96,75,49,29.73,29.52,12,2,24,0.01
2013-7-21,76.3,68.1,58.7,63.0,59.5,56.1,95,75,55,29.97,29.74,10,1,22,0.00
2013-7-22,72.0,65.3,58.4,66.1,61.2,56.1,97,87,69,30.00,29.88,3,0,10,0.00
2013-7-23,69.3,63.5,59.3,67.4,62.4,58.4,98,97,92,29.88,29.50,1,0,4,1.66
2013-7-24,66.4,64.9,62.7,65.8,64.3,61.8,99,98,98,29.54,29.51,0,0,3,0.00
2013-7-28,71.1,69.0,65.8,67.2,66.1,64.5,96,91,87,29.98,29.95,2,0,3,0.01
2013-7-29,79.0,67.5,63.1,69.8,64.9,61.9,98,92,66,30.00,29.91,8,1,17,0.30
2013-7-30,78.8,67.7,56.7,62.8,57.8,50.1,99,75,38,30.03,29.97,5,1,20,0.01
2013-7-31,80.7,66.6,51.6,63.7,56.5,50.8,98,74,40,30.08,29.97,7,1,13,0.00